• Join FlightAware (Why Join?)
  • Login
  • US Flag 
06:00PM EDT


 

Airport Tracker/Info


-or-


 

Live Flight TrackerFlight Track Log ✈ N727BG ✈ 27-Jul-2013 ✈ KDCA - KALB

Flight Track Log - Related Links

Times and Time Zones

All times are in EDT time to prevent confusion due to time zone crossing. See the N727BG flight status page for this flight to view local times or setup timezone preferences in your user account.

Time Position Orientation Groundspeed Altitude Reporting Facility
EDT Latitude Longitude Course Direction KTS MPH feet Rate Location/Type
09:08AM 38.7833 -77.0333 72° East 217 250 2,800  Level Potomac TRACON
09:10AM 38.7350 -77.1006 227° Southwest 167 192 8,000 3,000 Climbing Washington Center
09:11AM 38.7969 -77.1606 323° Northwest 153 176 11,300 3,060 Climbing Washington Center
09:12AM 38.8881 -77.2025 340° North 239 275 14,300 2,760 Climbing Washington Center
09:13AM 38.9967 -77.1833 North 318 366 16,800 2,280 Climbing Washington Center
09:14AM 39.3744 -76.6294 72° East  Level Estimated
09:14AM 39.0422 -77.0428 67° East 301 346 18,900  Level Washington Center
09:15AM 39.0628 -76.8936 80° East 345 397 19,000  Climbing Washington Center
09:16AM 39.0831 -76.7361 81° East 375 432 19,000 540 Level Washington Center
09:17AM 39.1031 -76.5786 81° East 422 486 20,100 1,320 Climbing Washington Center
09:18AM 39.1253 -76.4183 80° East 439 505 21,600 1,440 Climbing Washington Center
09:19AM 39.1450 -76.2525 81° East 453 521 23,000 1,380 Climbing Washington Center
09:20AM 39.1686 -76.0789 80° East 470 541 24,400 1,140 Climbing Washington Center
09:21AM 39.1922 -75.9075 80° East 475 547 25,400 960 Climbing Washington Center
09:22AM 39.2758 -75.7711 52° Northeast 468 539 26,300 720 Climbing Washington Center
09:23AM 39.3739 -75.6453 45° Northeast 483 556 26,900 240 Climbing Washington Center
09:24AM 39.4781 -75.5164 44° Northeast 489 563 26,900  Level Washington Center
09:25AM 39.5800 -75.3814 46° Northeast 500 575 26,900  Level Washington Center
09:27AM 39.7419 -75.1633 46° Northeast 530 610 26,900  Level New York Center
09:28AM 39.8411 -75.0183 48° Northeast 530 610 27,000  Climbing New York Center
09:29AM 39.9358 -74.8778 49° Northeast 523 602 27,000  Level New York Center
09:30AM 40.0344 -74.7372 47° Northeast 517 595 27,000  Level New York Center
09:31AM 40.1328 -74.5989 47° Northeast 517 595 27,000 -60 Level New York Center
09:32AM 40.2222 -74.4706 48° Northeast 522 601 26,900 -60 Descending New York Center
09:33AM 40.3342 -74.3542 38° Northeast 517 595 26,900  Level New York Center
09:34AM 40.4461 -74.2344 39° Northeast 517 595 26,900 -780 Level New York Center
09:37AM 40.7569 -73.9033 39° Northeast 506 582 23,900 -780 Descending Boston Center
09:38AM 40.8628 -73.7847 40° Northeast 488 562 23,900  Level Boston Center
09:39AM 40.9747 -73.6386 45° Northeast 494 568 23,900 -300 Level Boston Center
09:40AM 41.0839 -73.5692 26° Northeast 496 571 23,400 -900 Descending Boston Center
09:41AM 41.2075 -73.4858 27° Northeast 484 557 22,200 -1,380 Descending Boston Center
09:42AM 41.3333 -73.4022 27° Northeast 474 545 20,700 -1,620 Descending Boston Center
09:43AM 41.4458 -73.4206 353° North 419 482 19,000 -1,440 Descending Boston Center
09:44AM 41.5831 -73.4392 354° North 440 506 17,900 -1,320 Descending Boston Center
09:45AM 41.6892 -73.4575 353° North 446 513 16,400 -1,860 Descending Boston Center
09:46AM 41.8203 -73.4819 352° North 432 497 14,200 -2,220 Descending Boston Center
09:47AM 41.9350 -73.4978 354° North 419 482 12,100 -1,560 Descending Boston Center
09:48AM 42.0431 -73.5192 352° North 406 467 11,200 -600 Descending Boston Center
09:49AM 42.1283 -73.5289 355° North 401 461 11,000 -120 Descending Boston Center
09:50AM 42.3372 -73.4878 North 400 460 11,000 -180 Level Boston Center
09:51AM 42.4372 -73.4894 359° North 349 402 10,600 -840 Descending Boston Center
09:52AM 42.5139 -73.5244 341° North 272 313 9,400 -1,380 Descending Boston Center
09:53AM 42.5806 -73.5481 345° North 266 306 8,000 -1,080 Descending Boston Center
09:55AM 42.6739 -73.5781 347° North 269 310 7,000 -780 Descending Boston Center
09:56AM 42.7444 -73.6047 344° North 240 276 6,200 -900 Descending Boston Center
09:57AM 42.7919 -73.6453 328° Northwest 212 244 5,300 -1,260 Descending Boston Center
09:57AM 42.8272 -73.6772 326° Northwest 176 203 4,100 -1,680 Descending Boston Center
09:58AM 42.8453 -73.7314 294° West 153 176 2,300 -1,260 Descending Boston Center
09:59AM 42.8281 -73.7875 247° West 136 157 1,500 -660 Descending Boston Center
10:00AM 42.7903 -73.8094 203° Southwest 147 169 1,000 -540 Descending Boston Center